aviador You're here:

PKWA Decoded Metar

KWAJALEIN in MARSHALL ISLANDS
Report Time2018-07-23 11:20:00
UTC Time2018-07-23 11:28:12
Flight Rules vfr VFR
Wind060° at 13 kt
W.Decomp.*RWY 06: 12.8 kt HW 2 kt LCW
W.Rank060° ranks 2
Current wind is above 060° avg. (12.2)
Visibility9999 m
Phenomena:N/A
Clouds:N/A
Expected CloudBase > 1,600 ft AGL from Temp-Dew spread
CeilingNone
Temp28°C (ISA +13)
Dew Point24°C (79% RH)
Heat Index31.9°C
QNH1010 hPa
Density Alt2,021 ft
Elevation26 ft
Report Wrong Elevation
Raw Report
PKWA 231120Z AUTO 06013KT 10SM CLR 28/24 A2983=

Extra information for PKWA:More info

Metar Taf Metar & Taf Last 4 Metars F.Rules Stats Wind Profile Meteogram Temp Stats Airport Information Weather charts Add Link Nearby VenuesMetar ALERT Operation Metar Decoded Social comments